createdAt,value
2022-09-07T00:02:37.055Z,25.59
2022-09-07T00:06:15.839Z,25.55
2022-09-07T00:09:53.616Z,25.51
2022-09-07T00:13:35.508Z,25.49
2022-09-07T00:17:12.401Z,25.47
2022-09-07T00:21:02.469Z,25.47
2022-09-07T00:24:40.615Z,25.47
2022-09-07T00:28:18.000Z,25.47
2022-09-07T00:31:55.202Z,25.46
2022-09-07T00:35:32.616Z,25.46
2022-09-07T00:39:11.382Z,25.46
2022-09-07T00:42:49.151Z,25.47
2022-09-07T00:46:29.195Z,25.46
2022-09-07T00:50:38.374Z,25.44
2022-09-07T00:54:25.188Z,25.43
2022-09-07T00:58:02.883Z,25.42
2022-09-07T01:01:40.615Z,25.41
2022-09-07T01:05:42.008Z,25.40
2022-09-07T01:09:22.904Z,25.40
2022-09-07T01:13:03.522Z,25.40
2022-09-07T01:17:17.471Z,25.38
2022-09-07T01:21:23.840Z,25.36
2022-09-07T01:25:16.726Z,25.32
2022-09-07T01:29:20.164Z,25.29
2022-09-07T01:33:01.465Z,25.25
2022-09-07T01:36:49.213Z,25.23
2022-09-07T01:40:36.802Z,25.22
2022-09-07T01:44:17.709Z,25.19
2022-09-07T01:47:59.270Z,25.17
2022-09-07T01:51:43.054Z,25.15
2022-09-07T01:55:31.863Z,25.13
2022-09-07T01:59:29.815Z,25.13
2022-09-07T02:03:15.660Z,25.13
2022-09-07T02:07:14.426Z,25.15
2022-09-07T02:11:01.910Z,25.17
2022-09-07T02:14:52.496Z,25.21
2022-09-07T02:18:37.786Z,25.23
2022-09-07T02:22:21.599Z,25.25
2022-09-07T02:26:03.412Z,25.28
2022-09-07T02:29:42.516Z,25.29
2022-09-07T02:33:21.164Z,25.32
2022-09-07T02:37:01.882Z,25.34
2022-09-07T02:40:39.773Z,25.37
2022-09-07T02:44:22.600Z,25.39
2022-09-07T02:48:31.476Z,25.41
2022-09-07T02:52:33.459Z,25.44
2022-09-07T02:56:29.464Z,25.51
2022-09-07T03:00:17.226Z,25.62
2022-09-07T03:03:58.382Z,25.78
2022-09-07T03:07:44.395Z,25.88
2022-09-07T03:11:23.268Z,25.94
2022-09-07T03:15:00.317Z,25.96
2022-09-07T03:18:38.098Z,26.01
2022-09-07T03:22:15.284Z,26.11
2022-09-07T03:25:52.512Z,26.10
2022-09-07T03:29:30.710Z,26.08
2022-09-07T03:33:08.170Z,26.05
2022-09-07T03:36:45.285Z,26.06
2022-09-07T03:40:22.946Z,26.03
2022-09-07T03:44:05.544Z,26.00
2022-09-07T03:47:42.827Z,25.95
2022-09-07T03:51:21.202Z,25.91
2022-09-07T03:54:58.647Z,25.82
2022-09-07T03:58:36.397Z,25.65
2022-09-07T04:02:15.032Z,25.52
2022-09-07T04:05:52.773Z,25.41
2022-09-07T04:09:29.927Z,25.34
2022-09-07T04:13:07.880Z,25.25
2022-09-07T04:16:45.080Z,25.19
2022-09-07T04:20:23.199Z,25.15
2022-09-07T04:24:02.266Z,25.11
2022-09-07T04:27:39.940Z,25.08
2022-09-07T04:31:18.843Z,25.07
2022-09-07T04:34:57.029Z,25.03
2022-09-07T04:38:34.142Z,24.99
2022-09-07T04:42:11.204Z,24.96
2022-09-07T04:45:49.099Z,24.90
2022-09-07T04:49:26.673Z,24.84
2022-09-07T04:53:04.509Z,24.77
2022-09-07T04:56:42.828Z,24.70
2022-09-07T05:00:20.415Z,24.63
2022-09-07T05:04:00.922Z,24.54
2022-09-07T05:07:37.940Z,24.48
2022-09-07T05:11:16.809Z,24.42
2022-09-07T05:14:54.367Z,24.37
2022-09-07T05:18:32.075Z,24.34
2022-09-07T05:22:09.139Z,24.32
2022-09-07T05:25:47.372Z,24.30
2022-09-07T05:33:21.352Z,24.31
2022-09-07T05:36:58.922Z,24.30
2022-09-07T05:40:40.513Z,24.30
2022-09-07T05:48:21.358Z,24.28
2022-09-07T05:51:58.768Z,24.28
2022-09-07T05:55:35.952Z,24.28
2022-09-07T05:59:13.614Z,24.28
2022-09-07T06:02:52.293Z,24.28
2022-09-07T06:06:30.927Z,24.28
2022-09-07T06:14:08.640Z,24.31
2022-09-07T06:17:46.934Z,24.32
2022-09-07T06:21:24.750Z,24.37
2022-09-07T06:25:03.587Z,24.41
2022-09-07T06:28:43.664Z,24.46
2022-09-07T06:36:24.224Z,24.54
2022-09-07T06:40:02.545Z,24.60
2022-09-07T06:43:45.518Z,24.66
2022-09-07T06:47:23.995Z,24.72
2022-09-07T06:51:07.007Z,24.79
2022-09-07T06:55:00.616Z,24.88
2022-09-07T06:58:42.341Z,24.98
2022-09-07T07:02:21.261Z,25.09
2022-09-07T07:05:58.541Z,25.21
2022-09-07T07:09:35.896Z,25.32
2022-09-07T07:16:51.494Z,25.49
2022-09-07T07:20:30.454Z,25.58
2022-09-07T07:24:11.245Z,25.66
2022-09-07T07:27:45.465Z,25.77
2022-09-07T07:31:25.093Z,25.89
2022-09-07T07:35:03.606Z,26.04
2022-09-07T07:42:36.396Z,26.36
2022-09-07T07:46:16.453Z,26.55
2022-09-07T07:50:30.762Z,26.76
2022-09-07T07:53:51.822Z,27.04
2022-09-07T07:57:30.423Z,27.25
2022-09-07T08:01:12.460Z,27.44
2022-09-07T08:04:50.607Z,27.61
2022-09-07T08:08:30.334Z,27.81
2022-09-07T08:12:07.972Z,28.00
2022-09-07T08:15:45.431Z,28.20
2022-09-07T08:19:23.228Z,28.40
2022-09-07T08:40:37.222Z,29.04
2022-09-07T08:44:18.977Z,29.19
2022-09-07T08:47:56.905Z,29.36
2022-09-07T08:51:41.943Z,29.49
2022-09-07T08:55:23.969Z,29.59
2022-09-07T08:59:13.479Z,29.73
2022-09-07T09:07:11.023Z,29.91
2022-09-07T09:11:10.867Z,29.99
2022-09-07T09:15:11.192Z,30.10
2022-09-07T09:19:06.162Z,30.19
2022-09-07T09:22:43.800Z,30.27
2022-09-07T09:26:25.693Z,30.39
2022-09-07T09:30:02.878Z,30.51
2022-09-07T09:33:40.965Z,30.67
2022-09-07T09:37:34.120Z,30.84
2022-09-07T09:41:15.214Z,31.04
2022-09-07T09:44:53.826Z,31.21
2022-09-07T09:48:38.825Z,31.22
2022-09-07T09:52:43.564Z,31.13
2022-09-07T09:56:17.410Z,31.01
2022-09-07T10:00:06.957Z,30.94
2022-09-07T10:03:57.663Z,30.88
2022-09-07T10:07:38.061Z,30.82
2022-09-07T10:11:15.720Z,30.79
2022-09-07T10:14:54.323Z,30.81
2022-09-07T10:18:41.186Z,30.71
2022-09-07T10:22:37.549Z,30.76
2022-09-07T10:26:36.586Z,30.90
2022-09-07T10:30:16.764Z,30.90
2022-09-07T10:34:29.468Z,30.91
2022-09-07T10:38:22.821Z,30.90
2022-09-07T10:42:10.104Z,31.02
2022-09-07T10:46:09.837Z,31.20
2022-09-07T11:02:43.231Z,31.57
2022-09-07T11:06:48.729Z,31.60
2022-09-07T11:10:35.480Z,31.64
2022-09-07T11:14:18.426Z,31.62
2022-09-07T11:18:17.311Z,31.77
2022-09-07T11:22:03.407Z,31.78
2022-09-07T11:25:56.752Z,31.75
2022-09-07T11:29:46.732Z,31.70
2022-09-07T11:37:54.518Z,31.66
2022-09-07T11:41:49.442Z,31.59
2022-09-07T11:45:44.015Z,31.57
2022-09-07T11:49:25.783Z,31.68
2022-09-07T11:53:14.989Z,31.85
2022-09-07T11:57:14.731Z,32.01
2022-09-07T12:01:08.806Z,32.17
2022-09-07T12:05:05.131Z,32.18
2022-09-07T12:09:20.323Z,32.09
2022-09-07T12:13:06.021Z,32.09
2022-09-07T12:17:09.728Z,32.15
2022-09-07T12:20:48.996Z,32.24
2022-09-07T12:24:38.182Z,32.35
2022-09-07T12:28:19.966Z,32.55
2022-09-07T12:36:00.656Z,32.63
2022-09-07T12:39:39.133Z,32.70
2022-09-07T12:43:17.970Z,32.76
2022-09-07T12:46:58.388Z,32.86
2022-09-07T12:50:42.378Z,32.87
2022-09-07T12:54:37.628Z,32.50
2022-09-07T12:58:28.066Z,32.12
2022-09-07T13:02:31.195Z,32.05
2022-09-07T13:10:32.882Z,31.89
2022-09-07T13:14:15.687Z,31.93
2022-09-07T13:17:56.763Z,31.82
2022-09-07T13:21:42.303Z,31.80
2022-09-07T13:25:23.151Z,31.85
2022-09-07T13:29:02.538Z,31.77
2022-09-07T13:36:48.625Z,32.22
2022-09-07T13:40:30.632Z,32.31
2022-09-07T13:44:26.623Z,32.53
2022-09-07T13:48:50.194Z,33.01
2022-09-07T13:52:43.579Z,33.24
2022-09-07T13:56:30.375Z,33.51
2022-09-07T14:00:16.695Z,34.45
2022-09-07T14:04:03.517Z,36.54
2022-09-07T14:07:46.187Z,38.77
2022-09-07T14:11:48.484Z,40.50
2022-09-07T14:15:37.214Z,42.31
2022-09-07T14:19:23.987Z,43.71
2022-09-07T14:23:01.767Z,43.97
2022-09-07T14:26:46.490Z,44.26
2022-09-07T14:30:29.486Z,44.47
2022-09-07T14:34:09.043Z,45.02
2022-09-07T14:37:48.209Z,45.49
2022-09-07T14:41:28.471Z,45.27
2022-09-07T14:45:24.493Z,44.19
2022-09-07T14:49:18.174Z,42.84
2022-09-07T14:57:18.316Z,40.75
2022-09-07T15:05:15.389Z,39.21
2022-09-07T15:08:56.353Z,38.53
2022-09-07T15:12:38.573Z,37.87
2022-09-07T15:16:26.383Z,37.27
2022-09-07T15:20:32.567Z,36.83
2022-09-07T15:24:12.537Z,36.41
2022-09-07T15:27:49.935Z,36.07
2022-09-07T15:31:56.809Z,35.45
2022-09-07T15:35:28.825Z,34.79
2022-09-07T15:39:14.512Z,34.38
2022-09-07T15:43:19.829Z,34.13
2022-09-07T15:50:47.806Z,33.68
2022-09-07T15:54:26.308Z,33.36
2022-09-07T15:58:11.777Z,33.12
2022-09-07T16:01:51.936Z,32.96
2022-09-07T16:05:31.621Z,32.74
2022-09-07T16:09:09.875Z,32.55
2022-09-07T16:13:10.480Z,32.24
2022-09-07T16:20:22.517Z,31.58
2022-09-07T16:24:00.280Z,31.33
2022-09-07T16:27:38.147Z,31.12
2022-09-07T16:31:26.337Z,30.98
2022-09-07T16:35:04.931Z,30.94
2022-09-07T16:38:45.133Z,30.89
2022-09-07T16:42:23.535Z,30.84
2022-09-07T16:46:06.651Z,30.79
2022-09-07T16:49:43.975Z,30.73
2022-09-07T16:53:22.351Z,30.65
2022-09-07T16:57:00.218Z,30.60
2022-09-07T17:00:38.805Z,30.53
2022-09-07T17:04:17.342Z,30.44
2022-09-07T17:07:55.253Z,30.26
2022-09-07T17:11:34.925Z,30.17
2022-09-07T17:15:12.412Z,30.11
2022-09-07T17:22:47.603Z,30.07
2022-09-07T17:26:27.459Z,30.06
2022-09-07T17:30:07.057Z,30.03
2022-09-07T17:33:44.299Z,30.00
2022-09-07T17:37:22.912Z,29.94
2022-09-07T17:41:08.825Z,29.89
2022-09-07T17:44:46.360Z,29.86
2022-09-07T17:48:24.212Z,29.83
2022-09-07T17:52:02.754Z,29.80
2022-09-07T17:55:41.045Z,29.76
2022-09-07T18:03:16.535Z,29.67
2022-09-07T18:06:54.671Z,29.62
2022-09-07T18:14:33.329Z,29.51
2022-09-07T18:18:12.527Z,29.44
2022-09-07T18:21:50.635Z,29.40
2022-09-07T18:25:30.175Z,29.35
2022-09-07T18:29:27.338Z,29.30
2022-09-07T18:33:06.066Z,29.23
2022-09-07T18:36:43.944Z,29.18
2022-09-07T18:40:22.160Z,29.13
2022-09-07T18:44:00.470Z,29.10
2022-09-07T18:47:39.950Z,29.05
2022-09-07T18:51:19.529Z,29.01
2022-09-07T18:54:57.764Z,28.97
2022-09-07T18:58:36.471Z,28.94
2022-09-07T19:02:14.980Z,28.88
2022-09-07T19:06:00.436Z,28.84
2022-09-07T19:09:39.568Z,28.80
2022-09-07T19:13:20.044Z,28.76
2022-09-07T19:16:57.963Z,28.70
2022-09-07T19:20:36.157Z,28.67
2022-09-07T19:24:16.490Z,28.64
2022-09-07T19:27:56.486Z,28.62
2022-09-07T19:31:35.558Z,28.60
2022-09-07T19:35:13.025Z,28.57
2022-09-07T19:38:52.043Z,28.56
2022-09-07T19:42:31.007Z,28.55
2022-09-07T19:46:09.319Z,28.50
2022-09-07T19:49:46.575Z,28.47
2022-09-07T19:53:24.436Z,28.44
2022-09-07T19:57:02.351Z,28.43
2022-09-07T20:00:40.409Z,28.40
2022-09-07T20:04:20.278Z,28.39
2022-09-07T20:08:03.126Z,28.37
2022-09-07T20:11:46.038Z,28.34
2022-09-07T20:15:24.734Z,28.30
2022-09-07T20:19:02.702Z,28.26
2022-09-07T20:22:40.082Z,28.23
2022-09-07T20:26:21.217Z,28.21
2022-09-07T20:29:59.290Z,28.20
2022-09-07T20:33:38.357Z,28.19
2022-09-07T20:37:15.946Z,28.18
2022-09-07T20:40:56.009Z,28.15
2022-09-07T20:44:33.915Z,28.13
2022-09-07T20:48:11.785Z,28.11
2022-09-07T20:51:49.985Z,28.10
2022-09-07T20:55:28.124Z,28.07
2022-09-07T20:59:06.468Z,28.03
2022-09-07T21:02:44.691Z,28.00
2022-09-07T21:06:23.459Z,27.95
2022-09-07T21:10:06.036Z,27.91
2022-09-07T21:13:45.036Z,27.89
2022-09-07T21:17:22.908Z,27.86
2022-09-07T21:21:19.328Z,27.83
2022-09-07T21:25:00.461Z,27.79
2022-09-07T21:28:39.272Z,27.77
2022-09-07T21:32:16.949Z,27.75
2022-09-07T21:35:55.284Z,27.72
2022-09-07T21:39:32.584Z,27.68
2022-09-07T21:43:11.000Z,27.64
2022-09-07T21:46:52.089Z,27.61
2022-09-07T21:50:30.726Z,27.58
2022-09-07T21:54:09.103Z,27.55
2022-09-07T21:57:46.969Z,27.53
2022-09-07T22:01:26.948Z,27.51
2022-09-07T22:05:05.098Z,27.50
2022-09-07T22:08:43.554Z,27.50
2022-09-07T22:12:21.447Z,27.47
2022-09-07T22:15:59.211Z,27.45
2022-09-07T22:19:37.367Z,27.46
2022-09-07T22:23:16.445Z,27.48
2022-09-07T22:26:55.429Z,27.51
2022-09-07T22:30:34.627Z,27.55
2022-09-07T22:34:12.699Z,27.54
2022-09-07T22:37:50.978Z,27.51
2022-09-07T22:41:35.190Z,27.50
2022-09-07T22:45:13.053Z,27.47
2022-09-07T22:48:53.146Z,27.46
2022-09-07T22:52:32.413Z,27.44
2022-09-07T22:56:14.461Z,27.42
2022-09-07T22:59:52.947Z,27.43
2022-09-07T23:03:33.048Z,27.42
2022-09-07T23:07:10.695Z,27.43
2022-09-07T23:10:48.563Z,27.43
2022-09-07T23:14:26.947Z,27.42
2022-09-07T23:18:05.616Z,27.41
2022-09-07T23:21:43.906Z,27.42
2022-09-07T23:25:21.973Z,27.43
2022-09-07T23:29:05.673Z,27.43
2022-09-07T23:32:43.339Z,27.40
2022-09-07T23:36:20.899Z,27.40
2022-09-07T23:40:00.434Z,27.35
2022-09-07T23:43:37.668Z,27.32
2022-09-07T23:47:16.033Z,27.32
2022-09-07T23:50:54.411Z,27.30
2022-09-07T23:54:31.869Z,27.27
2022-09-07T23:58:10.455Z,27.24
